Time;durP1;ratioP1;P1;durP2;ratioP2;P2;SDS_P1;SDS_P2;PMS_P1;PMS_P2;Temp;Humidity;BMP_temperature;BMP_pressure;BME280_temperature;BME280_humidity;BME280_pressure;Samples;Min_cycle;Max_cycle;Signal;HPM_P1;HPM_P2
2021/10/05 00:01:58;;;;;;;2.50;2.30;;;;;;;;;;5033045;28;20989;-59
2021/10/05 00:04:25;;;;;;;3.53;2.40;;;;;;;;;;5033124;28;20999;-59
2021/10/05 00:06:53;;;;;;;3.17;2.70;;;;;;;;;;5033394;28;20445;-59
2021/10/05 00:09:20;;;;;;;3.00;2.80;;;;;;;;;;5033330;28;20452;-59
2021/10/05 00:11:47;;;;;;;3.43;3.13;;;;;;;;;;5033057;28;20996;-59
2021/10/05 00:14:14;;;;;;;4.93;2.63;;;;;;;;;;5032870;28;20535;-59
2021/10/05 00:16:43;;;;;;;3.33;2.83;;;;;;;;;;5033273;28;20448;-59
2021/10/05 00:19:10;;;;;;;3.27;2.80;;;;;;;;;;5033528;28;20445;-59
2021/10/05 00:21:38;;;;;;;3.10;2.70;;;;;;;;;;5033403;28;20989;-59
2021/10/05 00:24:05;;;;;;;2.50;2.30;;;;;;;;;;5035499;28;20445;-59
2021/10/05 00:26:32;;;;;;;3.70;2.57;;;;;;;;;;5037586;28;20456;-59
2021/10/05 00:29:00;;;;;;;4.53;2.43;;;;;;;;;;5037406;28;20453;-59
2021/10/05 00:31:27;;;;;;;2.73;2.53;;;;;;;;;;5036852;28;20960;-59
2021/10/05 00:33:55;;;;;;;5.07;3.10;;;;;;;;;;5036822;28;20481;-60
2021/10/05 00:36:23;;;;;;;3.80;3.00;;;;;;;;;;5036944;28;20936;-60
2021/10/05 00:38:50;;;;;;;3.20;2.60;;;;;;;;;;5036722;28;21020;-60
2021/10/05 00:41:17;;;;;;;2.60;2.38;;;;;;;;;;5061280;22;20510;-56
2021/10/05 00:43:44;;;;;;;3.03;2.47;;;;;;;;;;5037407;28;20210;-56
2021/10/05 00:46:11;;;;;;;2.70;2.50;;;;;;;;;;5037212;28;20842;-56
2021/10/05 00:48:39;;;;;;;3.30;3.00;;;;;;;;;;5036985;28;20437;-56
2021/10/05 00:51:07;;;;;;;2.60;2.40;;;;;;;;;;5037116;28;20511;-56
2021/10/05 00:53:35;;;;;;;2.97;2.77;;;;;;;;;;5017262;28;20536;-56
2021/10/05 00:56:03;;;;;;;3.30;3.00;;;;;;;;;;5016778;28;20504;-57
2021/10/05 00:58:30;;;;;;;2.63;2.43;;;;;;;;;;5016827;28;20937;-56
2021/10/05 01:00:57;;;;;;;3.60;2.75;;;;;;;;;;5016942;28;20445;-56
2021/10/05 01:03:25;;;;;;;3.40;3.00;;;;;;;;;;5016834;28;20219;-54
2021/10/05 01:05:52;;;;;;;3.93;3.03;;;;;;;;;;5016919;28;20525;-56
2021/10/05 01:08:21;;;;;;;3.23;2.90;;;;;;;;;;5016577;28;20934;-55
2021/10/05 01:10:48;;;;;;;3.73;2.90;;;;;;;;;;5016730;28;20449;-55
2021/10/05 01:13:16;;;;;;;2.97;2.77;;;;;;;;;;5016524;28;20980;-55
2021/10/05 01:15:43;;;;;;;2.90;2.60;;;;;;;;;;5017077;28;20449;-55
2021/10/05 01:18:10;;;;;;;2.77;2.57;;;;;;;;;;5016637;28;20326;-56
2021/10/05 01:20:51;;;;;;;6.10;4.70;;;;;;;;;;5016400;28;20496;-55
2021/10/05 01:23:19;;;;;;;3.90;3.57;;;;;;;;;;5016505;28;20461;-56
2021/10/05 01:25:46;;;;;;;3.97;3.07;;;;;;;;;;5016343;28;20449;-56
2021/10/05 01:28:14;;;;;;;3.73;3.37;;;;;;;;;;5016062;28;20445;-56
2021/10/05 01:30:41;;;;;;;3.70;2.83;;;;;;;;;;5017256;28;20837;-57
2021/10/05 01:33:08;;;;;;;2.57;2.20;;;;;;;;;;5016565;28;20458;-56
2021/10/05 01:35:36;;;;;;;3.33;2.40;;;;;;;;;;5015373;28;20996;-57
2021/10/05 01:38:05;;;;;;;2.70;2.47;;;;;;;;;;5016019;28;21018;-56
2021/10/05 01:40:32;;;;;;;2.43;2.23;;;;;;;;;;5016212;28;20442;-55
2021/10/05 01:42:59;;;;;;;2.90;2.70;;;;;;;;;;5016095;28;20477;-57
2021/10/05 01:45:27;;;;;;;2.53;2.33;;;;;;;;;;5016081;28;20504;-56
2021/10/05 01:47:54;;;;;;;3.30;3.00;;;;;;;;;;5016024;28;20454;-56
2021/10/05 01:50:22;;;;;;;2.93;2.60;;;;;;;;;;5016185;28;20496;-56
2021/10/05 01:52:49;;;;;;;4.80;3.03;;;;;;;;;;5015734;28;20978;-56
2021/10/05 01:55:21;;;;;;;4.30;3.00;;;;;;;;;;5015970;28;20520;-55
2021/10/05 01:57:48;;;;;;;4.40;2.90;;;;;;;;;;5015846;28;20836;-57
2021/10/05 02:00:15;;;;;;;2.97;2.77;;;;;;;;;;5016070;28;20450;-56
2021/10/05 02:02:43;;;;;;;3.13;2.83;;;;;;;;;;5015743;28;20466;-56
2021/10/05 02:05:10;;;;;;;2.60;2.40;;;;;;;;;;5015691;28;20446;-55
2021/10/05 02:07:37;;;;;;;3.03;2.83;;;;;;;;;;5015911;28;20501;-56
2021/10/05 02:10:06;;;;;;;4.73;3.33;;;;;;;;;;5015767;28;20438;-56
2021/10/05 02:12:34;;;;;;;3.23;2.93;;;;;;;;;;5015962;28;20466;-56
2021/10/05 02:15:02;;;;;;;4.20;2.72;;;;;;;;;;5015632;28;20532;-56
2021/10/05 02:17:29;;;;;;;3.00;2.80;;;;;;;;;;5015680;28;20634;-56
2021/10/05 02:19:56;;;;;;;2.70;2.50;;;;;;;;;;5015359;28;20450;-56
2021/10/05 02:22:23;;;;;;;3.13;2.83;;;;;;;;;;5015464;28;20601;-56
2021/10/05 02:24:50;;;;;;;4.00;2.67;;;;;;;;;;5015249;28;20442;-56
2021/10/05 02:27:19;;;;;;;3.37;3.07;;;;;;;;;;5015232;28;20446;-56
2021/10/05 02:29:47;;;;;;;4.40;3.20;;;;;;;;;;5014872;28;20941;-56
2021/10/05 02:32:15;;;;;;;3.80;3.37;;;;;;;;;;5015072;28;20805;-57
2021/10/05 02:34:43;;;;;;;3.05;2.72;;;;;;;;;;5014710;28;20482;-56
2021/10/05 02:37:10;;;;;;;2.47;2.27;;;;;;;;;;5015051;28;20211;-56
2021/10/05 02:39:37;;;;;;;4.33;2.97;;;;;;;;;;5014940;28;20445;-55
2021/10/05 02:42:05;;;;;;;3.07;2.60;;;;;;;;;;5014686;28;20823;-56
2021/10/05 02:44:33;;;;;;;3.33;2.97;;;;;;;;;;5014903;28;20548;-56
2021/10/05 02:47:01;;;;;;;3.20;2.90;;;;;;;;;;5013693;28;20450;-56
2021/10/05 02:49:29;;;;;;;2.70;2.50;;;;;;;;;;5014647;28;20496;-56
2021/10/05 02:51:56;;;;;;;3.27;2.93;;;;;;;;;;5014954;28;20465;-57
2021/10/05 02:54:23;;;;;;;2.90;2.70;;;;;;;;;;5014673;28;20540;-56
2021/10/05 02:56:51;;;;;;;3.73;3.00;;;;;;;;;;5014695;28;20504;-56
2021/10/05 02:59:18;;;;;;;3.33;3.03;;;;;;;;;;5014690;28;20516;-56
2021/10/05 03:01:45;;;;;;;3.50;3.20;;;;;;;;;;5014243;28;20882;-56
2021/10/05 03:04:14;;;;;;;3.10;2.80;;;;;;;;;;5014259;28;20929;-56
2021/10/05 03:06:41;;;;;;;2.87;2.67;;;;;;;;;;5014420;28;21004;-57
2021/10/05 03:09:08;;;;;;;3.10;2.90;;;;;;;;;;5014242;28;20517;-56
2021/10/05 03:11:35;;;;;;;3.67;3.00;;;;;;;;;;5014506;28;20532;-58
2021/10/05 03:14:03;;;;;;;3.40;2.70;;;;;;;;;;5014349;28;20473;-56
2021/10/05 03:16:30;;;;;;;4.30;3.90;;;;;;;;;;5014333;28;20446;-56
2021/10/05 03:18:57;;;;;;;4.47;3.60;;;;;;;;;;5014347;28;20458;-57
2021/10/05 03:21:26;;;;;;;6.20;3.90;;;;;;;;;;5014445;28;20446;-56
2021/10/05 03:23:53;;;;;;;3.23;2.93;;;;;;;;;;5014126;28;20446;-56
2021/10/05 03:26:20;;;;;;;3.70;3.20;;;;;;;;;;5014130;28;20442;-56
2021/10/05 03:28:48;;;;;;;5.07;3.50;;;;;;;;;;5013983;28;20508;-56
2021/10/05 03:31:16;;;;;;;3.87;3.57;;;;;;;;;;5013881;28;20520;-55
2021/10/05 03:33:44;;;;;;;4.03;3.63;;;;;;;;;;5013862;28;20532;-56
2021/10/05 03:36:11;;;;;;;3.90;3.10;;;;;;;;;;5013676;28;20942;-56
2021/10/05 03:38:40;;;;;;;3.40;3.07;;;;;;;;;;5014139;28;20576;-56
2021/10/05 03:41:09;;;;;;;3.70;3.40;;;;;;;;;;5013757;28;20824;-56
2021/10/05 03:43:37;;;;;;;3.50;3.20;;;;;;;;;;5013788;28;20445;-56
2021/10/05 03:46:04;;;;;;;3.50;3.20;;;;;;;;;;5013441;28;20496;-56
2021/10/05 03:48:31;;;;;;;3.17;2.87;;;;;;;;;;5013802;28;20522;-55
2021/10/05 03:50:58;;;;;;;4.83;3.60;;;;;;;;;;5013832;28;20497;-56
2021/10/05 03:53:26;;;;;;;3.23;2.80;;;;;;;;;;5013701;28;20465;-56
2021/10/05 03:55:56;;;;;;;3.40;2.70;;;;;;;;;;5013594;28;20504;-56
2021/10/05 03:58:24;;;;;;;2.97;2.77;;;;;;;;;;5013730;28;20462;-56
2021/10/05 04:00:51;;;;;;;3.00;2.80;;;;;;;;;;5013325;28;20446;-55
2021/10/05 04:03:19;;;;;;;3.43;3.13;;;;;;;;;;5013173;28;21040;-55
2021/10/05 04:08:40;;;;;;;4.33;3.93;;;;;;;;;;5132365;27;20534;-58
2021/10/05 04:11:08;;;;;;;4.17;3.77;;;;;;;;;;5131807;27;20444;-57
2021/10/05 04:13:35;;;;;;;4.93;3.67;;;;;;;;;;5131536;27;20437;-57
2021/10/05 04:16:02;;;;;;;4.10;3.17;;;;;;;;;;5131443;27;20444;-57
2021/10/05 04:18:30;;;;;;;2.83;2.63;;;;;;;;;;5131338;27;20980;-57
2021/10/05 04:20:57;;;;;;;4.40;3.67;;;;;;;;;;5131752;27;20444;-57
2021/10/05 04:23:24;;;;;;;4.33;3.10;;;;;;;;;;5131230;27;20976;-57
2021/10/05 04:25:53;;;;;;;2.90;2.70;;;;;;;;;;5131504;27;20440;-57
2021/10/05 04:28:20;;;;;;;4.10;3.70;;;;;;;;;;5130985;27;20468;-57
2021/10/05 04:30:47;;;;;;;3.47;3.27;;;;;;;;;;5131358;27;20445;-57
2021/10/05 04:33:15;;;;;;;3.37;3.07;;;;;;;;;;5130855;27;20461;-57
2021/10/05 04:35:42;;;;;;;3.63;3.17;;;;;;;;;;5131319;27;20501;-57
2021/10/05 04:38:09;;;;;;;4.13;3.73;;;;;;;;;;5131265;27;20433;-57
2021/10/05 04:40:36;;;;;;;3.37;3.17;;;;;;;;;;5131111;27;20440;-57
2021/10/05 04:43:05;;;;;;;3.70;3.40;;;;;;;;;;5130765;27;20972;-58
2021/10/05 04:45:32;;;;;;;3.20;2.90;;;;;;;;;;5130891;27;20869;-57
2021/10/05 04:47:59;;;;;;;5.87;3.10;;;;;;;;;;5130991;27;20517;-57
2021/10/05 04:50:26;;;;;;;4.07;2.93;;;;;;;;;;5130638;27;20448;-57
2021/10/05 04:52:54;;;;;;;4.23;3.17;;;;;;;;;;5130893;27;20525;-57
2021/10/05 04:55:21;;;;;;;3.10;2.83;;;;;;;;;;5130709;27;20449;-56
2021/10/05 04:57:48;;;;;;;5.03;2.73;;;;;;;;;;5130833;27;20433;-58
2021/10/05 05:00:17;;;;;;;3.67;3.37;;;;;;;;;;5130482;27;20932;-57
2021/10/05 05:02:44;;;;;;;6.63;4.17;;;;;;;;;;5130830;27;20537;-57
2021/10/05 05:05:12;;;;;;;3.63;3.10;;;;;;;;;;5131140;27;20517;-56
2021/10/05 05:07:39;;;;;;;4.23;3.87;;;;;;;;;;5130129;27;20526;-57
2021/10/05 05:10:07;;;;;;;3.73;2.97;;;;;;;;;;5130664;27;20493;-56
2021/10/05 05:12:35;;;;;;;5.23;4.73;;;;;;;;;;5131549;27;20509;-57
2021/10/05 05:15:02;;;;;;;4.73;4.33;;;;;;;;;;5134458;27;20477;-58
2021/10/05 05:17:31;;;;;;;3.43;3.13;;;;;;;;;;5131282;27;20437;-56
2021/10/05 05:19:59;;;;;;;3.30;3.00;;;;;;;;;;5117983;27;20453;-58
2021/10/05 05:22:26;;;;;;;3.10;2.77;;;;;;;;;;5117198;28;20530;-54
2021/10/05 05:24:53;;;;;;;4.30;3.27;;;;;;;;;;5117155;28;20486;-56
2021/10/05 05:27:22;;;;;;;5.87;3.63;;;;;;;;;;5116841;28;20814;-58
2021/10/05 05:29:50;;;;;;;5.77;3.10;;;;;;;;;;5117237;28;20445;-58
2021/10/05 05:32:18;;;;;;;4.90;3.50;;;;;;;;;;5116742;28;20504;-58
2021/10/05 05:34:46;;;;;;;3.20;2.47;;;;;;;;;;5116988;28;20445;-58
2021/10/05 05:37:14;;;;;;;5.23;3.33;;;;;;;;;;5117120;28;20494;-57
2021/10/05 05:39:42;;;;;;;4.13;3.23;;;;;;;;;;5116729;28;20471;-59
2021/10/05 05:42:10;;;;;;;3.33;2.90;;;;;;;;;;5116251;28;20466;-58
2021/10/05 05:44:37;;;;;;;2.53;2.33;;;;;;;;;;5116474;28;20445;-57
2021/10/05 05:47:05;;;;;;;3.20;2.33;;;;;;;;;;5116649;28;20473;-58
2021/10/05 05:49:32;;;;;;;10.30;3.20;;;;;;;;;;5116321;28;20497;-57
2021/10/05 05:52:01;;;;;;;4.20;2.93;;;;;;;;;;5115733;28;20465;-58
2021/10/05 05:54:28;;;;;;;4.67;2.40;;;;;;;;;;5116075;27;20445;-56
2021/10/05 05:56:55;;;;;;;3.00;2.50;;;;;;;;;;5116046;28;20446;-56
2021/10/05 05:59:23;;;;;;;2.50;1.80;;;;;;;;;;5115895;28;20450;-58
2021/10/05 06:01:50;;;;;;;4.33;2.23;;;;;;;;;;5115518;28;21120;-57
2021/10/05 06:04:17;;;;;;;2.10;1.90;;;;;;;;;;5116092;28;20490;-57
2021/10/05 06:06:44;;;;;;;3.43;2.20;;;;;;;;;;5116226;28;20530;-56
2021/10/05 06:09:13;;;;;;;6.57;2.60;;;;;;;;;;5116210;27;20494;-56
2021/10/05 06:11:41;;;;;;;4.87;2.13;;;;;;;;;;5115847;28;20530;-57
2021/10/05 06:14:09;;;;;;;2.60;2.23;;;;;;;;;;5115795;28;20541;-57
2021/10/05 06:16:36;;;;;;;2.80;2.60;;;;;;;;;;5116930;28;20445;-57
2021/10/05 06:19:03;;;;;;;3.37;2.23;;;;;;;;;;5116360;28;20438;-57
2021/10/05 06:21:31;;;;;;;4.80;2.03;;;;;;;;;;5115755;28;20495;-57
2021/10/05 06:23:58;;;;;;;3.70;2.70;;;;;;;;;;5115499;28;20932;-57
2021/10/05 06:26:26;;;;;;;3.20;2.90;;;;;;;;;;5115646;28;20994;-58
2021/10/05 06:28:54;;;;;;;3.40;2.50;;;;;;;;;;5116313;28;20846;-57
2021/10/05 06:31:21;;;;;;;2.03;1.83;;;;;;;;;;5115166;28;20441;-57
2021/10/05 06:33:48;;;;;;;2.50;2.20;;;;;;;;;;5115585;28;20502;-56
2021/10/05 06:36:15;;;;;;;3.47;2.20;;;;;;;;;;5115173;28;20995;-57
2021/10/05 06:38:43;;;;;;;4.00;3.40;;;;;;;;;;5114707;28;20441;-58
2021/10/05 06:41:10;;;;;;;3.90;2.60;;;;;;;;;;5115114;28;20442;-59
2021/10/05 06:43:39;;;;;;;3.10;2.53;;;;;;;;;;5117986;22;20475;-58
2021/10/05 06:46:06;;;;;;;3.40;3.10;;;;;;;;;;5074217;28;20440;-58
2021/10/05 06:48:33;;;;;;;3.13;2.30;;;;;;;;;;5073651;28;20825;-58
2021/10/05 06:51:00;;;;;;;3.37;2.40;;;;;;;;;;5073772;28;20451;-57
2021/10/05 06:53:28;;;;;;;3.30;2.40;;;;;;;;;;5073911;28;20524;-58
2021/10/05 06:55:55;;;;;;;2.40;2.20;;;;;;;;;;5073767;28;20860;-58
2021/10/05 06:58:22;;;;;;;3.47;2.40;;;;;;;;;;5073520;28;20488;-57
2021/10/05 07:00:51;;;;;;;4.30;2.40;;;;;;;;;;5073457;28;20443;-57
2021/10/05 07:03:19;;;;;;;5.00;2.43;;;;;;;;;;5073488;28;20475;-57
2021/10/05 07:05:46;;;;;;;4.43;3.03;;;;;;;;;;5073603;28;21014;-57
2021/10/05 07:08:14;;;;;;;4.40;2.37;;;;;;;;;;5073323;28;20475;-58
2021/10/05 07:10:42;;;;;;;2.50;2.10;;;;;;;;;;5073202;28;20811;-57
2021/10/05 07:13:09;;;;;;;2.07;1.87;;;;;;;;;;5073559;28;20517;-58
2021/10/05 07:15:37;;;;;;;5.03;2.23;;;;;;;;;;5073735;28;20443;-59
2021/10/05 07:18:05;;;;;;;4.17;2.20;;;;;;;;;;5073629;28;20439;-59
2021/10/05 07:20:33;;;;;;;3.70;2.20;;;;;;;;;;5073473;28;20447;-58
2021/10/05 07:23:00;;;;;;;4.10;2.40;;;;;;;;;;5073044;28;20468;-58
2021/10/05 07:25:28;;;;;;;3.30;2.43;;;;;;;;;;5073307;28;20455;-57
2021/10/05 07:27:55;;;;;;;2.43;2.17;;;;;;;;;;5073351;28;20467;-57
2021/10/05 07:30:24;;;;;;;2.93;2.50;;;;;;;;;;5074005;28;20447;-58
2021/10/05 07:32:52;;;;;;;4.23;2.43;;;;;;;;;;5072875;28;21006;-57
2021/10/05 07:35:20;;;;;;;3.23;2.30;;;;;;;;;;5073070;28;20475;-57
2021/10/05 07:37:48;;;;;;;2.00;1.90;;;;;;;;;;5072869;28;20445;-57
2021/10/05 07:40:20;;;;;;;2.13;1.60;;;;;;;;;;5072838;28;20799;-58
2021/10/05 07:42:47;;;;;;;3.30;2.20;;;;;;;;;;5072622;28;20510;-57
2021/10/05 07:45:14;;;;;;;4.07;2.47;;;;;;;;;;5073146;28;20448;-57
2021/10/05 07:47:42;;;;;;;4.00;2.67;;;;;;;;;;5072471;28;20475;-58
2021/10/05 07:50:09;;;;;;;4.40;2.20;;;;;;;;;;5072849;28;20462;-57
2021/10/05 07:52:38;;;;;;;3.13;1.73;;;;;;;;;;5073019;28;20467;-57
2021/10/05 07:55:06;;;;;;;5.83;2.47;;;;;;;;;;5073716;28;20451;-58
2021/10/05 07:57:33;;;;;;;3.90;2.17;;;;;;;;;;5073230;28;20451;-59
2021/10/05 08:00:00;;;;;;;3.47;2.60;;;;;;;;;;5072855;28;20501;-58
2021/10/05 08:02:28;;;;;;;2.90;2.20;;;;;;;;;;5072877;28;20536;-57
2021/10/05 08:04:56;;;;;;;5.27;2.33;;;;;;;;;;5072403;28;20447;-57
2021/10/05 08:07:26;;;;;;;2.43;2.20;;;;;;;;;;5072763;28;21000;-57
2021/10/05 08:09:55;;;;;;;2.70;2.00;;;;;;;;;;5072587;28;20447;-58
2021/10/05 08:12:22;;;;;;;2.73;2.47;;;;;;;;;;5072524;28;20455;-57
2021/10/05 08:14:49;;;;;;;4.60;2.77;;;;;;;;;;5073119;28;20451;-57
2021/10/05 08:17:17;;;;;;;2.63;2.43;;;;;;;;;;5073240;28;20435;-57
2021/10/05 08:19:44;;;;;;;3.50;2.00;;;;;;;;;;5073084;28;20439;-58
2021/10/05 08:22:11;;;;;;;3.03;2.73;;;;;;;;;;5073322;28;20994;-58
2021/10/05 08:24:39;;;;;;;4.30;2.63;;;;;;;;;;5072929;28;20949;-58
2021/10/05 08:27:08;;;;;;;3.73;2.70;;;;;;;;;;5073489;28;20492;-57
2021/10/05 08:29:37;;;;;;;3.47;2.40;;;;;;;;;;5072490;28;21055;-57
2021/10/05 08:32:05;;;;;;;2.87;2.67;;;;;;;;;;5072299;28;21049;-57
2021/10/05 08:34:32;;;;;;;2.80;2.30;;;;;;;;;;5072679;28;20451;-58
2021/10/05 08:36:59;;;;;;;3.10;2.30;;;;;;;;;;5073151;28;20500;-57
2021/10/05 08:39:26;;;;;;;3.53;2.80;;;;;;;;;;5073566;28;20438;-58
2021/10/05 08:41:54;;;;;;;2.90;2.63;;;;;;;;;;5072736;28;20447;-57
2021/10/05 08:44:24;;;;;;;3.60;2.40;;;;;;;;;;5072657;28;20435;-57
2021/10/05 08:46:51;;;;;;;3.73;2.47;;;;;;;;;;5073453;28;20436;-57
2021/10/05 08:49:20;;;;;;;4.67;2.90;;;;;;;;;;5072327;28;20994;-56
2021/10/05 08:51:48;;;;;;;2.87;2.60;;;;;;;;;;5072325;28;20465;-57
2021/10/05 08:54:15;;;;;;;4.63;2.30;;;;;;;;;;5074931;28;20439;-57
2021/10/05 08:56:42;;;;;;;3.40;2.67;;;;;;;;;;5076606;28;20493;-57
2021/10/05 08:59:10;;;;;;;4.23;2.70;;;;;;;;;;5076003;28;20945;-58
2021/10/05 09:01:38;;;;;;;2.50;2.30;;;;;;;;;;5076146;28;20439;-58
2021/10/05 09:04:06;;;;;;;3.70;3.07;;;;;;;;;;5076177;28;20443;-58
2021/10/05 09:06:35;;;;;;;3.13;2.10;;;;;;;;;;5076235;28;20850;-59
2021/10/05 09:09:04;;;;;;;5.20;3.10;;;;;;;;;;5075645;28;20485;-60
2021/10/05 09:11:38;;;;;;;3.57;2.80;;;;;;;;;;5076027;28;20494;-58
2021/10/05 09:14:05;;;;;;;3.40;2.90;;;;;;;;;;5076045;28;20438;-58
2021/10/05 09:16:33;;;;;;;2.90;2.43;;;;;;;;;;5075800;28;20443;-58
2021/10/05 09:19:03;;;;;;;7.10;2.90;;;;;;;;;;5076009;28;20439;-58
2021/10/05 09:21:32;;;;;;;3.37;2.50;;;;;;;;;;5075610;28;20505;-59
2021/10/05 09:24:00;;;;;;;4.30;2.50;;;;;;;;;;5075286;28;20521;-58
2021/10/05 09:26:38;;;;;;;5.00;2.53;;;;;;;;;;5075762;28;20450;-58
2021/10/05 09:29:09;;;;;;;4.30;2.83;;;;;;;;;;5075350;28;20532;-58
2021/10/05 09:31:46;;;;;;;8.50;3.20;;;;;;;;;;5076132;28;20431;-58
2021/10/05 09:34:15;;;;;;;4.60;3.30;;;;;;;;;;5076467;28;20424;-57
2021/10/05 09:36:42;;;;;;;9.33;2.97;;;;;;;;;;5076211;28;21007;-57
2021/10/05 09:39:10;;;;;;;4.60;3.10;;;;;;;;;;5075871;28;20439;-59
2021/10/05 09:41:37;;;;;;;3.60;2.53;;;;;;;;;;5075549;28;20454;-58
2021/10/05 09:44:07;;;;;;;3.97;2.90;;;;;;;;;;5075350;28;20463;-58
2021/10/05 09:46:35;;;;;;;3.77;2.87;;;;;;;;;;5075519;28;20534;-59
2021/10/05 09:49:03;;;;;;;2.83;2.60;;;;;;;;;;5075687;28;20524;-59
2021/10/05 09:51:33;;;;;;;2.93;2.50;;;;;;;;;;5075450;28;20864;-58
2021/10/05 09:54:00;;;;;;;3.27;2.37;;;;;;;;;;5075011;28;21048;-58
2021/10/05 09:56:29;;;;;;;7.77;3.17;;;;;;;;;;5075458;28;20455;-58
2021/10/05 09:58:57;;;;;;;5.00;3.10;;;;;;;;;;5075327;28;20439;-57
2021/10/05 10:01:25;;;;;;;7.30;3.23;;;;;;;;;;5074945;28;20450;-58
2021/10/05 10:03:53;;;;;;;6.60;2.90;;;;;;;;;;5074798;28;20470;-57
2021/10/05 10:06:20;;;;;;;6.10;3.13;;;;;;;;;;5074619;28;20972;-57
2021/10/05 10:08:50;;;;;;;6.40;3.83;;;;;;;;;;5074595;28;21079;-58
2021/10/05 10:11:17;;;;;;;5.20;2.97;;;;;;;;;;5074741;28;20517;-58
2021/10/05 10:13:45;;;;;;;6.30;4.40;;;;;;;;;;5074954;28;20474;-58
2021/10/05 10:16:12;;;;;;;4.30;2.90;;;;;;;;;;5074860;28;20532;-58
2021/10/05 10:18:49;;;;;;;11.40;3.47;;;;;;;;;;5074593;28;20440;-57
2021/10/05 10:21:17;;;;;;;2.97;2.47;;;;;;;;;;5075167;28;20489;-56
2021/10/05 10:23:44;;;;;;;4.10;2.40;;;;;;;;;;5074674;28;20490;-58
2021/10/05 10:26:18;;;;;;;2.77;2.50;;;;;;;;;;5074602;28;20510;-57
2021/10/05 10:28:46;;;;;;;4.97;2.70;;;;;;;;;;5074482;28;20539;-57
2021/10/05 10:31:15;;;;;;;6.40;2.90;;;;;;;;;;5074639;28;20497;-57
2021/10/05 10:33:45;;;;;;;2.50;2.30;;;;;;;;;;5074302;28;20516;-58
2021/10/05 10:36:13;;;;;;;2.37;2.17;;;;;;;;;;5074652;28;20443;-58
2021/10/05 10:38:42;;;;;;;4.90;2.43;;;;;;;;;;5074380;28;20858;-57
2021/10/05 10:41:16;;;;;;;4.43;2.60;;;;;;;;;;5074706;28;20538;-57
2021/10/05 10:43:52;;;;;;;4.27;3.50;;;;;;;;;;5073545;28;20479;-57
2021/10/05 10:46:24;;;;;;;4.33;2.80;;;;;;;;;;5073967;28;20481;-58
2021/10/05 10:48:54;;;;;;;4.33;3.00;;;;;;;;;;5074317;28;20467;-58
2021/10/05 10:51:21;;;;;;;3.50;2.50;;;;;;;;;;5074053;28;20519;-58
2021/10/05 10:53:49;;;;;;;3.97;2.70;;;;;;;;;;5073946;28;20467;-58
2021/10/05 10:56:28;;;;;;;3.03;2.40;;;;;;;;;;5074274;28;20443;-58
2021/10/05 10:58:59;;;;;;;2.60;2.17;;;;;;;;;;5073528;28;20423;-58
2021/10/05 11:01:35;;;;;;;3.50;2.70;;;;;;;;;;5073920;28;20439;-58
2021/10/05 11:04:03;;;;;;;3.10;2.20;;;;;;;;;;5073788;28;20431;-58
2021/10/05 11:06:30;;;;;;;2.63;2.33;;;;;;;;;;5073497;28;20447;-59
2021/10/05 11:08:58;;;;;;;3.33;2.40;;;;;;;;;;5073923;28;20554;-58
2021/10/05 11:11:37;;;;;;;3.27;2.67;;;;;;;;;;5073743;28;20812;-58
2021/10/05 11:14:05;;;;;;;3.13;2.53;;;;;;;;;;5073638;28;20427;-59
2021/10/05 11:16:34;;;;;;;4.50;2.10;;;;;;;;;;5073235;28;20448;-58
2021/10/05 11:19:08;;;;;;;3.10;2.80;;;;;;;;;;5073401;28;20442;-58
2021/10/05 11:21:37;;;;;;;4.73;3.03;;;;;;;;;;5073295;28;20418;-57
2021/10/05 11:24:04;;;;;;;3.90;2.77;;;;;;;;;;5073136;28;20853;-58
2021/10/05 11:26:33;;;;;;;3.73;2.00;;;;;;;;;;5073963;28;20992;-58
2021/10/05 11:29:02;;;;;;;4.10;2.80;;;;;;;;;;5073331;28;20510;-57
2021/10/05 11:31:29;;;;;;;3.60;2.10;;;;;;;;;;5073367;28;20447;-57
2021/10/05 11:34:04;;;;;;;2.90;2.20;;;;;;;;;;5073018;28;20451;-58
2021/10/05 11:36:33;;;;;;;7.10;2.87;;;;;;;;;;5072893;28;20513;-58
2021/10/05 11:39:00;;;;;;;4.47;2.50;;;;;;;;;;5073135;28;20439;-58
2021/10/05 11:41:36;;;;;;;2.50;2.30;;;;;;;;;;5073229;28;20454;-58
2021/10/05 11:44:12;;;;;;;4.83;3.10;;;;;;;;;;5072922;28;20458;-58
2021/10/05 11:46:40;;;;;;;1.97;1.80;;;;;;;;;;5072861;28;20962;-58
2021/10/05 11:49:07;;;;;;;2.67;2.20;;;;;;;;;;5073140;28;20483;-58
2021/10/05 11:51:43;;;;;;;3.40;2.07;;;;;;;;;;5073112;28;20496;-57
2021/10/05 11:54:17;;;;;;;5.57;2.07;;;;;;;;;;5073608;28;20514;-56
2021/10/05 11:56:45;;;;;;;2.80;2.23;;;;;;;;;;5072770;28;20903;-56
2021/10/05 11:59:24;;;;;;;4.97;2.70;;;;;;;;;;5072929;28;20439;-57
2021/10/05 12:01:56;;;;;;;4.67;2.60;;;;;;;;;;5072832;28;20486;-56
2021/10/05 12:04:24;;;;;;;4.80;2.60;;;;;;;;;;5073082;28;20485;-57
2021/10/05 12:06:53;;;;;;;5.33;2.53;;;;;;;;;;5073629;28;20443;-57
2021/10/05 12:09:24;;;;;;;9.67;6.40;;;;;;;;;;5072934;28;20548;-58
2021/10/05 12:11:52;;;;;;;9.50;7.70;;;;;;;;;;5072724;28;20423;-56
2021/10/05 12:14:20;;;;;;;12.07;10.60;;;;;;;;;;5072796;28;20439;-57
2021/10/05 12:16:58;;;;;;;5.50;5.00;;;;;;;;;;5073055;28;20488;-58
2021/10/05 12:19:26;;;;;;;5.20;2.70;;;;;;;;;;5072803;28;20423;-57
2021/10/05 12:21:54;;;;;;;2.90;2.20;;;;;;;;;;5072462;28;20444;-57
2021/10/05 12:24:21;;;;;;;5.90;4.60;;;;;;;;;;5072444;28;20865;-58
2021/10/05 12:26:49;;;;;;;2.80;2.60;;;;;;;;;;5072828;28;20443;-59
2021/10/05 12:29:16;;;;;;;4.53;2.53;;;;;;;;;;5074848;28;20478;-58
2021/10/05 12:31:52;;;;;;;2.40;1.90;;;;;;;;;;5077090;28;20448;-56
2021/10/05 12:34:22;;;;;;;5.10;3.03;;;;;;;;;;5076347;28;20427;-57
2021/10/05 12:36:51;;;;;;;3.13;2.80;;;;;;;;;;5076115;28;20447;-58
2021/10/05 12:39:19;;;;;;;3.73;2.33;;;;;;;;;;5076598;28;20530;-58
2021/10/05 12:41:57;;;;;;;2.60;2.40;;;;;;;;;;5076525;28;20504;-58
2021/10/05 12:44:24;;;;;;;5.67;3.40;;;;;;;;;;5111132;22;20517;-60
2021/10/05 12:46:56;;;;;;;3.37;2.27;;;;;;;;;;5077659;28;20923;-60
2021/10/05 12:49:24;;;;;;;6.63;2.90;;;;;;;;;;5077099;28;20547;-59
2021/10/05 12:51:52;;;;;;;2.43;2.00;;;;;;;;;;5076869;28;20947;-60
2021/10/05 12:54:19;;;;;;;2.40;2.20;;;;;;;;;;5076683;28;20463;-60
2021/10/05 12:56:47;;;;;;;2.90;2.07;;;;;;;;;;5077059;28;20856;-60
2021/10/05 12:59:14;;;;;;;2.30;2.10;;;;;;;;;;5077207;28;20451;-61
2021/10/05 13:01:42;;;;;;;2.70;2.30;;;;;;;;;;5077177;28;20857;-59
2021/10/05 13:04:10;;;;;;;3.10;2.40;;;;;;;;;;5077248;28;20463;-61
2021/10/05 13:06:38;;;;;;;2.47;2.27;;;;;;;;;;5076682;28;20451;-61
2021/10/05 13:09:07;;;;;;;4.00;2.47;;;;;;;;;;5076514;28;20443;-61
2021/10/05 13:11:34;;;;;;;2.70;2.30;;;;;;;;;;5076587;28;20903;-61
2021/10/05 13:14:02;;;;;;;4.03;3.40;;;;;;;;;;5075845;28;20524;-60
2021/10/05 13:16:29;;;;;;;3.33;2.00;;;;;;;;;;5075472;28;20492;-61
2021/10/05 13:18:56;;;;;;;2.70;2.40;;;;;;;;;;5076551;28;20501;-59
2021/10/05 13:21:23;;;;;;;6.57;2.43;;;;;;;;;;5075985;28;20439;-61
2021/10/05 13:23:52;;;;;;;2.67;2.30;;;;;;;;;;5076132;28;20509;-61
2021/10/05 13:26:19;;;;;;;2.77;2.47;;;;;;;;;;5075155;28;20451;-61
2021/10/05 13:28:46;;;;;;;2.33;2.10;;;;;;;;;;5075726;28;20451;-61
2021/10/05 13:31:14;;;;;;;3.30;2.00;;;;;;;;;;5075674;28;20474;-61
2021/10/05 13:33:41;;;;;;;6.20;2.77;;;;;;;;;;5075369;28;20463;-62
2021/10/05 13:36:08;;;;;;;3.30;2.23;;;;;;;;;;5075516;28;20582;-61
2021/10/05 13:38:36;;;;;;;2.50;2.20;;;;;;;;;;5075262;28;20439;-60
2021/10/05 13:41:08;;;;;;;1.93;1.73;;;;;;;;;;5075538;28;20843;-59
2021/10/05 13:43:36;;;;;;;3.13;1.90;;;;;;;;;;5075367;28;20867;-62
2021/10/05 13:46:03;;;;;;;2.30;1.80;;;;;;;;;;5076048;28;20447;-61
2021/10/05 13:48:30;;;;;;;1.70;1.50;;;;;;;;;;5075604;28;20622;-63
2021/10/05 13:50:57;;;;;;;3.17;2.87;;;;;;;;;;5076003;28;20970;-61
2021/10/05 13:53:24;;;;;;;1.90;1.60;;;;;;;;;;5075320;28;20500;-60
2021/10/05 13:55:52;;;;;;;1.77;1.67;;;;;;;;;;5075528;28;20827;-61
2021/10/05 13:58:20;;;;;;;2.70;1.93;;;;;;;;;;5075715;28;20448;-61
2021/10/05 14:00:48;;;;;;;2.40;1.90;;;;;;;;;;5075878;28;20439;-61
2021/10/05 14:03:15;;;;;;;4.90;1.70;;;;;;;;;;5075515;28;20463;-60
2021/10/05 14:05:42;;;;;;;2.40;2.00;;;;;;;;;;5075378;28;20448;-60
2021/10/05 14:08:09;;;;;;;1.50;1.40;;;;;;;;;;5074549;28;20508;-60
2021/10/05 14:10:37;;;;;;;1.83;1.63;;;;;;;;;;5075583;28;20471;-61
2021/10/05 14:13:04;;;;;;;1.70;1.30;;;;;;;;;;5074389;28;20992;-61
2021/10/05 14:15:32;;;;;;;2.80;2.00;;;;;;;;;;5074443;28;20452;-61
2021/10/05 14:18:03;;;;;;;2.53;1.70;;;;;;;;;;5074305;28;20931;-61
2021/10/05 14:20:30;;;;;;;2.17;1.50;;;;;;;;;;5074820;28;20424;-61
2021/10/05 14:22:57;;;;;;;2.60;1.83;;;;;;;;;;5074337;28;21060;-61
2021/10/05 14:25:24;;;;;;;1.57;1.47;;;;;;;;;;5074103;28;20451;-61
2021/10/05 14:27:52;;;;;;;1.80;1.30;;;;;;;;;;5074309;28;20450;-61
2021/10/05 14:30:19;;;;;;;3.40;1.57;;;;;;;;;;5074246;28;20994;-62
2021/10/05 14:32:48;;;;;;;2.80;1.97;;;;;;;;;;5074386;28;20447;-63
2021/10/05 14:35:15;;;;;;;1.80;1.50;;;;;;;;;;5074241;28;20801;-61
2021/10/05 14:37:43;;;;;;;1.23;1.10;;;;;;;;;;5074362;28;20863;-61
2021/10/05 14:40:10;;;;;;;1.10;1.00;;;;;;;;;;5073838;28;20497;-61
2021/10/05 14:42:38;;;;;;;1.17;1.03;;;;;;;;;;5074176;28;20447;-62
2021/10/05 14:45:06;;;;;;;1.40;1.10;;;;;;;;;;5073672;28;20536;-61
2021/10/05 14:47:34;;;;;;;2.30;1.50;;;;;;;;;;5074340;28;20447;-61
2021/10/05 14:50:02;;;;;;;1.70;1.37;;;;;;;;;;5073760;28;20528;-61
2021/10/05 14:52:29;;;;;;;3.63;1.73;;;;;;;;;;5073303;28;20501;-61